Date,TemperatureHighF,TemperatureAvgF,TemperatureLowF,DewpointHighF,DewpointAvgF,DewpointLowF,HumidityHigh,HumidityAvg,HumidityLow,PressureMaxIn,PressureMinIn,WindSpeedMaxMPH,WindSpeedAvgMPH,GustSpeedMaxMPH,PrecipitationSumIn
2013-1-17,33.4,33.2,32.9,29.8,29.6,29.2,87,87,86,29.53,29.46,3,1,4,0.00
2013-1-18,33.4,30.8,29.3,28.9,28.0,25.9,93,89,83,29.42,29.06,8,3,9,0.00
2013-1-19,33.3,31.8,30.6,31.2,29.1,27.0,94,90,85,29.09,28.99,11,4,13,0.00
2013-1-20,32.5,31.1,29.7,30.3,28.6,26.2,94,91,85,29.07,28.92,8,2,8,0.00
2013-1-21,30.9,28.6,25.7,29.4,26.3,22.7,94,91,86,29.10,28.89,2,0,2,0.06
2013-1-22,34.3,31.9,25.2,30.7,28.5,22.1,89,87,84,29.24,29.09,10,4,11,0.21
2013-1-23,34.5,34.0,33.4,30.6,30.5,30.3,88,87,85,29.36,29.29,7,3,11,0.24
2013-1-24,35.8,34.0,33.4,30.5,28.0,26.8,88,78,70,29.66,29.46,2,1,6,0.24
2013-1-25,37.8,35.5,33.6,34.2,30.2,27.5,87,81,76,29.55,29.19,6,3,8,0.24
2013-1-26,45.7,43.4,38.5,42.5,39.9,37.4,96,87,81,29.38,29.16,7,3,8,0.40
2013-1-27,49.6,43.8,38.3,48.3,39.6,34.4,95,85,64,29.20,28.90,10,4,10,0.25
2013-1-28,49.3,43.6,33.6,46.5,40.3,29.8,90,88,85,29.34,29.15,5,3,8,0.32
2013-1-29,54.0,53.0,48.9,51.2,50.4,46.7,93,91,90,29.19,29.16,8,5,12,0.35
2013-1-30,47.7,46.1,44.2,45.1,38.5,36.1,94,75,67,29.55,29.20,9,4,9,0.54
2013-1-31,48.4,46.5,45.0,44.2,38.8,37.1,90,75,66,29.46,29.35,5,4,8,0.64
2013-2-1,44.6,40.2,36.9,40.3,36.6,32.8,93,87,79,29.18,29.06,5,2,5,0.81
2013-2-2,41.4,36.6,30.0,37.3,29.0,23.6,90,74,62,29.75,29.20,11,4,13,0.00
2013-2-3,48.6,45.1,39.2,44.6,40.5,33.2,87,84,79,29.59,29.45,6,2,9,0.01
2013-2-4,50.5,46.9,42.1,45.2,41.0,34.4,86,80,71,29.45,29.34,8,4,8,0.00
2013-2-5,42.6,40.1,34.7,36.6,33.5,27.9,80,77,68,29.17,28.96,8,5,13,0.09
2013-2-6,42.6,38.6,36.1,36.6,28.7,24.8,79,67,62,29.58,28.97,10,5,16,0.12
2013-2-7,40.8,37.8,32.4,34.6,31.9,24.7,87,79,68,29.60,29.51,4,2,6,0.13
2013-2-8,42.3,39.8,34.9,35.1,32.5,29.7,82,75,65,29.65,29.61,7,4,9,0.14
2013-2-9,39.6,38.0,37.2,35.4,34.2,32.8,88,86,84,29.62,29.44,2,1,4,0.15
2013-2-10,41.4,37.8,34.0,39.2,35.1,30.5,92,90,87,29.11,28.90,8,3,9,0.54
2013-2-11,34.2,34.0,33.4,30.5,30.4,30.3,88,87,86,29.32,28.99,4,2,6,0.77
2013-2-12,35.1,34.4,33.4,27.3,26.3,25.6,77,72,69,29.64,29.44,4,1,7,0.77
2013-2-13,37.6,35.0,32.7,34.6,29.2,26.9,89,79,71,29.68,29.55,6,2,9,0.78
2013-2-14,51.4,46.3,40.5,45.9,39.9,36.0,92,79,65,29.50,29.28,10,2,10,0.83
2013-2-15,50.5,41.6,37.0,39.2,35.5,31.8,88,79,60,29.71,29.60,4,1,5,0.83
2013-2-16,41.4,39.0,36.5,36.3,34.7,31.8,90,85,78,29.73,29.70,0,0,0,0.00
2013-2-17,46.0,40.3,37.0,38.7,35.1,32.4,92,82,62,29.69,29.61,5,2,8,0.00
2013-2-18,34.3,32.5,30.7,30.9,28.5,26.8,88,85,82,29.66,29.61,1,0,3,0.00
2013-2-19,35.4,31.3,26.6,28.9,26.5,22.2,85,82,77,29.62,29.58,0,0,0,0.00
2013-2-20,38.1,35.6,34.7,36.0,26.8,24.7,92,71,66,29.75,29.67,8,1,10,0.01
2013-2-21,35.6,34.3,33.4,23.4,20.4,18.7,63,56,52,29.73,29.67,7,1,8,0.02
2013-2-22,35.4,34.7,32.7,21.3,20.7,18.4,61,56,53,29.66,29.61,3,0,5,0.00
2013-2-23,36.1,34.8,34.2,22.9,21.8,20.6,62,59,53,29.69,29.63,2,0,4,0.00
2013-2-24,34.3,34.3,34.3,21.9,21.9,21.9,60,60,60,29.69,29.69,0,0,2,0.00
2013-2-25,34.3,34.3,34.3,21.9,21.9,21.9,60,60,60,29.69,29.69,0,0,2,0.00
2013-2-26,34.3,34.3,34.3,21.9,21.9,21.9,60,60,60,29.69,29.69,0,0,2,0.00
2013-2-27,43.0,38.8,36.0,35.4,32.6,30.0,88,79,66,30.01,29.93,4,0,4,0.00
2013-2-28,41.0,39.0,36.1,35.6,33.0,30.5,83,79,76,29.88,29.82,0,0,2,0.00
2013-3-1,44.6,42.2,38.8,39.6,33.6,29.2,89,72,62,29.89,29.83,2,0,8,0.02
2013-3-2,37.2,32.8,28.4,27.7,25.8,24.1,84,75,67,29.83,29.77,0,0,1,0.02
2013-3-3,46.4,37.1,26.1,36.4,31.0,21.5,87,79,66,29.78,29.65,2,0,3,0.00
2013-3-4,37.0,35.2,33.3,31.0,30.1,29.0,84,81,78,29.52,29.33,0,0,0,0.00
2013-3-5,50.4,44.2,39.0,42.8,38.6,36.1,91,81,71,29.25,29.17,0,0,0,0.00
2013-3-6,56.5,49.8,41.9,43.9,41.1,35.7,84,73,62,29.16,29.08,1,0,2,0.01
2013-3-7,48.7,47.1,45.1,46.2,44.3,41.3,92,90,83,29.10,28.97,3,1,4,0.19
2013-3-8,50.4,48.8,47.1,47.8,46.6,44.9,93,92,91,29.14,29.00,0,0,3,0.46
2013-3-9,46.0,43.2,39.4,42.7,39.1,34.4,92,85,82,29.25,29.16,6,3,8,0.48
2013-3-10,39.9,37.0,34.3,33.5,29.6,25.8,83,74,70,29.31,29.24,12,2,13,0.50
2013-3-11,34.2,31.9,29.3,26.1,21.3,17.1,73,65,53,29.32,29.26,2,0,2,0.00
2013-3-12,36.3,31.0,29.5,28.5,20.7,15.2,74,65,52,29.38,29.31,0,0,1,0.00
2013-3-13,44.6,37.3,31.1,29.8,26.7,24.2,79,66,45,29.49,29.33,0,0,0,0.00
2013-3-14,38.7,32.3,25.3,26.5,23.5,20.5,86,71,55,29.53,29.48,0,0,0,0.00
2013-3-15,46.6,45.5,44.2,40.5,40.2,40.0,85,82,78,29.32,29.32,0,0,1,0.02
2013-3-25,34.7,34.1,33.1,23.0,22.0,19.8,63,61,55,29.48,29.45,1,0,1,0.00
2013-3-26,35.6,34.3,33.3,23.3,22.0,21.0,65,60,55,29.46,29.42,0,0,0,0.00
2013-3-27,44.2,35.6,31.1,27.6,23.1,19.4,74,60,50,29.43,29.38,0,0,0,0.00
2013-3-28,40.3,35.5,28.0,28.7,23.4,18.2,82,62,47,29.48,29.37,0,0,0,0.00
2013-3-29,44.4,36.3,26.6,25.9,23.3,18.8,76,60,44,29.45,29.33,0,0,0,0.00
2013-3-30,44.2,37.4,33.8,29.7,26.0,23.3,71,63,52,29.51,29.33,0,0,0,0.00
2013-3-31,44.1,33.9,25.5,28.2,23.8,19.4,84,67,48,29.50,29.48,0,0,7,0.00